sensor_id;sensor_type;location;lat;lon;timestamp;pressure;altitude;pressure_sealevel;temperature;humidity
48848;BME280;36611;51.638;5.784;2023-01-31T00:01:30;102354.69;;;7.26;54.95
48848;BME280;36611;51.638;5.784;2023-01-31T00:04:00;102351.25;;;7.22;55.04
48848;BME280;36611;51.638;5.784;2023-01-31T00:06:32;102356.66;;;7.21;55.18
48848;BME280;36611;51.638;5.784;2023-01-31T00:09:00;102355.84;;;7.19;55.21
48848;BME280;36611;51.638;5.784;2023-01-31T00:11:28;102362.09;;;7.18;55.32
48848;BME280;36611;51.638;5.784;2023-01-31T00:13:57;102351.50;;;7.15;55.20
48848;BME280;36611;51.638;5.784;2023-01-31T00:16:24;102356.03;;;7.13;55.19
48848;BME280;36611;51.638;5.784;2023-01-31T00:18:51;102356.19;;;7.08;55.12
48848;BME280;36611;51.638;5.784;2023-01-31T00:21:24;102360.84;;;7.01;55.10
48848;BME280;36611;51.638;5.784;2023-01-31T00:23:51;102367.16;;;6.99;55.04
48848;BME280;36611;51.638;5.784;2023-01-31T00:26:30;102369.88;;;6.97;55.25
48848;BME280;36611;51.638;5.784;2023-01-31T00:28:59;102372.59;;;6.96;55.14
48848;BME280;36611;51.638;5.784;2023-01-31T00:31:27;102369.09;;;6.94;55.21
48848;BME280;36611;51.638;5.784;2023-01-31T00:33:55;102368.25;;;6.93;55.13
48848;BME280;36611;51.638;5.784;2023-01-31T00:36:23;102359.34;;;6.93;55.18
48848;BME280;36611;51.638;5.784;2023-01-31T00:38:52;102369.16;;;6.92;55.13
48848;BME280;36611;51.638;5.784;2023-01-31T00:41:20;102360.31;;;6.90;55.16
48848;BME280;36611;51.638;5.784;2023-01-31T00:43:48;102362.16;;;6.88;55.30
48848;BME280;36611;51.638;5.784;2023-01-31T00:46:16;102360.50;;;6.84;55.09
48848;BME280;36611;51.638;5.784;2023-01-31T00:48:43;102357.88;;;6.83;55.09
48848;BME280;36611;51.638;5.784;2023-01-31T00:51:10;102359.75;;;6.81;55.22
48848;BME280;36611;51.638;5.784;2023-01-31T00:53:37;102346.44;;;6.79;55.27
48848;BME280;36611;51.638;5.784;2023-01-31T00:56:15;102353.56;;;6.79;55.18
48848;BME280;36611;51.638;5.784;2023-01-31T00:58:42;102347.34;;;6.78;55.33
48848;BME280;36611;51.638;5.784;2023-01-31T01:01:11;102350.94;;;6.77;55.20
48848;BME280;36611;51.638;5.784;2023-01-31T01:03:40;102364.28;;;6.77;55.40
48848;BME280;36611;51.638;5.784;2023-01-31T01:06:08;102355.41;;;6.77;55.39
48848;BME280;36611;51.638;5.784;2023-01-31T01:08:35;102347.41;;;6.77;55.20
48848;BME280;36611;51.638;5.784;2023-01-31T01:11:11;102343.88;;;6.76;55.52
48848;BME280;36611;51.638;5.784;2023-01-31T01:13:40;102345.56;;;6.79;55.60
48848;BME280;36611;51.638;5.784;2023-01-31T01:16:12;102341.97;;;6.80;55.59
48848;BME280;36611;51.638;5.784;2023-01-31T01:18:39;102343.75;;;6.79;55.47
48848;BME280;36611;51.638;5.784;2023-01-31T01:21:09;102334.88;;;6.79;55.57
48848;BME280;36611;51.638;5.784;2023-01-31T01:23:37;102326.09;;;6.75;55.56
48848;BME280;36611;51.638;5.784;2023-01-31T01:26:05;102327.94;;;6.73;55.59
48848;BME280;36611;51.638;5.784;2023-01-31T01:28:33;102319.94;;;6.73;55.64
48848;BME280;36611;51.638;5.784;2023-01-31T01:31:07;102325.22;;;6.75;55.70
48848;BME280;36611;51.638;5.784;2023-01-31T01:33:35;102322.44;;;6.78;55.82
48848;BME280;36611;51.638;5.784;2023-01-31T01:36:07;102323.28;;;6.80;55.80
48848;BME280;36611;51.638;5.784;2023-01-31T01:38:34;102316.13;;;6.80;55.83
48848;BME280;36611;51.638;5.784;2023-01-31T01:41:03;102309.94;;;6.80;55.72
48848;BME280;36611;51.638;5.784;2023-01-31T01:43:56;102309.06;;;6.79;55.81
48848;BME280;36611;51.638;5.784;2023-01-31T01:46:28;102308.13;;;6.80;55.84
48848;BME280;36611;51.638;5.784;2023-01-31T01:49:02;102311.72;;;6.79;55.82
48848;BME280;36611;51.638;5.784;2023-01-31T01:51:31;102315.22;;;6.81;55.84
48848;BME280;36611;51.638;5.784;2023-01-31T01:54:03;102308.03;;;6.83;55.88
48848;BME280;36611;51.638;5.784;2023-01-31T01:56:37;102318.66;;;6.85;55.88
48848;BME280;36611;51.638;5.784;2023-01-31T01:59:20;102314.19;;;6.85;56.01
48848;BME280;36611;51.638;5.784;2023-01-31T02:01:50;102307.00;;;6.87;55.85
48848;BME280;36611;51.638;5.784;2023-01-31T02:04:21;102308.75;;;6.88;55.88
48848;BME280;36611;51.638;5.784;2023-01-31T02:06:48;102308.69;;;6.90;55.95
48848;BME280;36611;51.638;5.784;2023-01-31T02:09:21;102299.81;;;6.89;55.88
48848;BME280;36611;51.638;5.784;2023-01-31T02:11:53;102312.31;;;6.89;55.82
48848;BME280;36611;51.638;5.784;2023-01-31T02:14:20;102319.44;;;6.88;55.79
48848;BME280;36611;51.638;5.784;2023-01-31T02:16:47;102324.78;;;6.88;55.81
48848;BME280;36611;51.638;5.784;2023-01-31T02:19:22;102325.66;;;6.89;55.90
48848;BME280;36611;51.638;5.784;2023-01-31T02:22:06;102332.78;;;6.88;55.83
48848;BME280;36611;51.638;5.784;2023-01-31T02:30:57;102337.34;;;6.85;56.03
48848;BME280;36611;51.638;5.784;2023-01-31T02:33:51;102335.59;;;6.84;56.03
48848;BME280;36611;51.638;5.784;2023-01-31T02:39:10;102339.28;;;6.80;56.16
48848;BME280;36611;51.638;5.784;2023-01-31T02:41:48;102327.69;;;6.81;56.11
48848;BME280;36611;51.638;5.784;2023-01-31T02:44:28;102332.13;;;6.82;56.12
48848;BME280;36611;51.638;5.784;2023-01-31T02:55:27;102309.16;;;6.76;56.19
48848;BME280;36611;51.638;5.784;2023-01-31T02:58:17;102316.25;;;6.77;56.33
48848;BME280;36611;51.638;5.784;2023-01-31T03:00:47;102305.50;;;6.79;56.42
48848;BME280;36611;51.638;5.784;2023-01-31T03:03:26;102304.53;;;6.81;56.52
48848;BME280;36611;51.638;5.784;2023-01-31T03:08:56;102307.88;;;6.88;56.63
48848;BME280;36611;51.638;5.784;2023-01-31T03:20:10;102295.97;;;6.98;56.70
48848;BME280;36611;51.638;5.784;2023-01-31T03:22:45;102288.78;;;7.00;56.73
48848;BME280;36611;51.638;5.784;2023-01-31T03:25:17;102297.63;;;7.02;56.82
48848;BME280;36611;51.638;5.784;2023-01-31T03:27:50;102285.09;;;7.04;57.12
48848;BME280;36611;51.638;5.784;2023-01-31T03:30:25;102285.91;;;7.06;56.93
48848;BME280;36611;51.638;5.784;2023-01-31T03:32:58;102284.00;;;7.10;57.02
48848;BME280;36611;51.638;5.784;2023-01-31T03:35:28;102287.44;;;7.13;57.17
48848;BME280;36611;51.638;5.784;2023-01-31T03:41:01;102277.41;;;7.20;57.60
48848;BME280;36611;51.638;5.784;2023-01-31T03:43:29;102271.06;;;7.24;57.42
48848;BME280;36611;51.638;5.784;2023-01-31T03:46:00;102277.22;;;7.26;57.40
48848;BME280;36611;51.638;5.784;2023-01-31T03:48:35;102261.94;;;7.29;57.24
48848;BME280;36611;51.638;5.784;2023-01-31T03:51:07;102257.41;;;7.31;57.28
48848;BME280;36611;51.638;5.784;2023-01-31T03:53:42;102256.44;;;7.34;57.54
48848;BME280;36611;51.638;5.784;2023-01-31T03:56:17;102259.94;;;7.36;57.57
48848;BME280;36611;51.638;5.784;2023-01-31T03:58:48;102258.94;;;7.39;57.78
48848;BME280;36611;51.638;5.784;2023-01-31T04:01:18;102264.19;;;7.42;57.82
48848;BME280;36611;51.638;5.784;2023-01-31T04:03:56;102257.84;;;7.46;57.80
48848;BME280;36611;51.638;5.784;2023-01-31T04:06:25;102259.47;;;7.50;57.75
48848;BME280;36611;51.638;5.784;2023-01-31T04:08:53;102255.81;;;7.52;58.08
48848;BME280;36611;51.638;5.784;2023-01-31T04:11:23;102258.44;;;7.54;58.06
48848;BME280;36611;51.638;5.784;2023-01-31T04:13:49;102267.28;;;7.56;58.10
48848;BME280;36611;51.638;5.784;2023-01-31T04:16:16;102251.19;;;7.57;57.99
48848;BME280;36611;51.638;5.784;2023-01-31T04:18:43;102257.34;;;7.59;58.24
48848;BME280;36611;51.638;5.784;2023-01-31T04:21:10;102245.59;;;7.63;58.14
48848;BME280;36611;51.638;5.784;2023-01-31T04:23:38;102254.44;;;7.65;58.23
48848;BME280;36611;51.638;5.784;2023-01-31T04:26:05;102241.94;;;7.66;58.15
48848;BME280;36611;51.638;5.784;2023-01-31T04:28:31;102239.22;;;7.68;58.15
48848;BME280;36611;51.638;5.784;2023-01-31T04:30:58;102240.03;;;7.70;58.35
48848;BME280;36611;51.638;5.784;2023-01-31T04:33:25;102233.81;;;7.69;58.33
48848;BME280;36611;51.638;5.784;2023-01-31T04:35:52;102240.84;;;7.72;58.36
48848;BME280;36611;51.638;5.784;2023-01-31T04:38:18;102229.22;;;7.73;58.33
48848;BME280;36611;51.638;5.784;2023-01-31T04:40:45;102233.63;;;7.74;58.54
48848;BME280;36611;51.638;5.784;2023-01-31T04:43:12;102240.69;;;7.76;58.33
48848;BME280;36611;51.638;5.784;2023-01-31T04:45:39;102232.66;;;7.76;58.45
48848;BME280;36611;51.638;5.784;2023-01-31T04:48:06;102226.38;;;7.77;58.45
48848;BME280;36611;51.638;5.784;2023-01-31T04:50:33;102231.72;;;7.77;58.56
48848;BME280;36611;51.638;5.784;2023-01-31T04:52:59;102229.94;;;7.78;58.58
48848;BME280;36611;51.638;5.784;2023-01-31T04:55:26;102228.19;;;7.77;58.52
48848;BME280;36611;51.638;5.784;2023-01-31T04:57:53;102226.44;;;7.76;58.48
48848;BME280;36611;51.638;5.784;2023-01-31T05:00:20;102215.75;;;7.76;58.60
48848;BME280;36611;51.638;5.784;2023-01-31T05:02:46;102215.78;;;7.74;58.57
48848;BME280;36611;51.638;5.784;2023-01-31T05:05:13;102217.59;;;7.74;58.66
48848;BME280;36611;51.638;5.784;2023-01-31T05:07:39;102215.84;;;7.73;58.64
48848;BME280;36611;51.638;5.784;2023-01-31T05:10:06;102211.44;;;7.72;58.51
48848;BME280;36611;51.638;5.784;2023-01-31T05:12:33;102215.91;;;7.71;58.59
48848;BME280;36611;51.638;5.784;2023-01-31T05:15:00;102203.47;;;7.70;58.66
48848;BME280;36611;51.638;5.784;2023-01-31T05:17:27;102210.56;;;7.71;58.46
48848;BME280;36611;51.638;5.784;2023-01-31T05:19:55;102206.16;;;7.70;58.36
48848;BME280;36611;51.638;5.784;2023-01-31T05:22:22;102210.69;;;7.68;58.63
48848;BME280;36611;51.638;5.784;2023-01-31T05:24:50;102209.00;;;7.65;58.39
48848;BME280;36611;51.638;5.784;2023-01-31T05:27:17;102197.41;;;7.65;58.47
48848;BME280;36611;51.638;5.784;2023-01-31T05:29:44;102200.16;;;7.63;58.41
48848;BME280;36611;51.638;5.784;2023-01-31T05:32:12;102191.25;;;7.63;58.63
48848;BME280;36611;51.638;5.784;2023-01-31T05:34:39;102198.34;;;7.64;58.64
48848;BME280;36611;51.638;5.784;2023-01-31T05:37:06;102190.28;;;7.65;58.67
48848;BME280;36611;51.638;5.784;2023-01-31T05:39:33;102190.22;;;7.67;58.76
48848;BME280;36611;51.638;5.784;2023-01-31T05:41:59;102191.09;;;7.68;58.93
48848;BME280;36611;51.638;5.784;2023-01-31T05:44:27;102190.09;;;7.70;58.88
48848;BME280;36611;51.638;5.784;2023-01-31T05:46:53;102182.03;;;7.72;58.97
48848;BME280;36611;51.638;5.784;2023-01-31T05:49:20;102178.34;;;7.74;58.92
48848;BME280;36611;51.638;5.784;2023-01-31T05:51:47;102180.97;;;7.76;58.83
48848;BME280;36611;51.638;5.784;2023-01-31T05:54:13;102164.94;;;7.76;58.88
48848;BME280;36611;51.638;5.784;2023-01-31T05:56:40;102175.56;;;7.77;59.07
48848;BME280;36611;51.638;5.784;2023-01-31T05:59:06;102175.50;;;7.79;58.96
48848;BME280;36611;51.638;5.784;2023-01-31T06:01:33;102171.84;;;7.81;58.99
48848;BME280;36611;51.638;5.784;2023-01-31T06:04:00;102170.09;;;7.80;58.96
48848;BME280;36611;51.638;5.784;2023-01-31T06:06:27;102173.59;;;7.82;59.24
48848;BME280;36611;51.638;5.784;2023-01-31T06:08:53;102168.19;;;7.84;59.29
48848;BME280;36611;51.638;5.784;2023-01-31T06:11:20;102163.59;;;7.87;59.37
48848;BME280;36611;51.638;5.784;2023-01-31T06:13:47;102175.09;;;7.89;59.22
48848;BME280;36611;51.638;5.784;2023-01-31T06:16:14;102178.56;;;7.91;59.35
48848;BME280;36611;51.638;5.784;2023-01-31T06:18:46;102180.31;;;7.92;59.22
48848;BME280;36611;51.638;5.784;2023-01-31T06:21:12;102175.84;;;7.93;59.13
48848;BME280;36611;51.638;5.784;2023-01-31T06:23:39;102175.78;;;7.94;59.17
48848;BME280;36611;51.638;5.784;2023-01-31T06:26:07;102181.06;;;7.96;59.28
48848;BME280;36611;51.638;5.784;2023-01-31T06:28:35;102177.47;;;7.97;59.27
48848;BME280;36611;51.638;5.784;2023-01-31T06:31:08;102178.34;;;7.97;59.23
48848;BME280;36611;51.638;5.784;2023-01-31T06:33:36;102171.19;;;7.98;59.30
48848;BME280;36611;51.638;5.784;2023-01-31T06:36:13;102180.09;;;7.98;59.27
48848;BME280;36611;51.638;5.784;2023-01-31T06:38:43;102166.72;;;7.98;59.32
48848;BME280;36611;51.638;5.784;2023-01-31T06:41:10;102158.69;;;7.98;59.24
48848;BME280;36611;51.638;5.784;2023-01-31T06:43:38;102164.03;;;7.98;59.37
48848;BME280;36611;51.638;5.784;2023-01-31T06:46:04;102169.31;;;8.00;59.27
48848;BME280;36611;51.638;5.784;2023-01-31T06:48:31;102163.09;;;8.00;59.26
48848;BME280;36611;51.638;5.784;2023-01-31T06:50:58;102139.91;;;8.00;59.32
48848;BME280;36611;51.638;5.784;2023-01-31T06:53:24;102139.78;;;8.03;59.26
48848;BME280;36611;51.638;5.784;2023-01-31T06:55:51;102142.44;;;8.03;59.32
48848;BME280;36611;51.638;5.784;2023-01-31T06:58:17;102149.53;;;8.04;59.09
48848;BME280;36611;51.638;5.784;2023-01-31T07:00:46;102145.06;;;8.05;59.09
48848;BME280;36611;51.638;5.784;2023-01-31T07:03:13;102151.28;;;8.05;59.02
48848;BME280;36611;51.638;5.784;2023-01-31T07:05:39;102152.09;;;8.07;59.01
48848;BME280;36611;51.638;5.784;2023-01-31T07:08:06;102152.03;;;8.09;59.12
48848;BME280;36611;51.638;5.784;2023-01-31T07:10:33;102152.97;;;8.08;58.98
48848;BME280;36611;51.638;5.784;2023-01-31T07:12:59;102142.25;;;8.08;59.04
48848;BME280;36611;51.638;5.784;2023-01-31T07:15:26;102132.44;;;8.08;59.11
48848;BME280;36611;51.638;5.784;2023-01-31T07:17:57;102132.44;;;8.08;59.10
48848;BME280;36611;51.638;5.784;2023-01-31T07:20:25;102130.63;;;8.09;59.17
48848;BME280;36611;51.638;5.784;2023-01-31T07:22:56;102119.88;;;8.10;59.14
48848;BME280;36611;51.638;5.784;2023-01-31T07:25:24;102130.56;;;8.10;59.21
48848;BME280;36611;51.638;5.784;2023-01-31T07:27:50;102126.16;;;8.09;59.31
48848;BME280;36611;51.638;5.784;2023-01-31T07:30:18;102110.91;;;8.11;59.28
48848;BME280;36611;51.638;5.784;2023-01-31T07:32:44;102113.59;;;8.11;59.19
48848;BME280;36611;51.638;5.784;2023-01-31T07:35:11;102116.25;;;8.11;59.14
48848;BME280;36611;51.638;5.784;2023-01-31T07:37:38;102105.50;;;8.13;59.32
48848;BME280;36611;51.638;5.784;2023-01-31T07:40:06;102116.13;;;8.14;59.49
48848;BME280;36611;51.638;5.784;2023-01-31T07:42:33;102110.72;;;8.16;59.47
48848;BME280;36611;51.638;5.784;2023-01-31T07:44:59;102113.31;;;8.17;59.47
48848;BME280;36611;51.638;5.784;2023-01-31T07:47:46;102115.91;;;8.20;59.39
48848;BME280;36611;51.638;5.784;2023-01-31T07:50:12;102110.56;;;8.20;59.46
48848;BME280;36611;51.638;5.784;2023-01-31T07:52:39;102103.34;;;8.22;59.44
48848;BME280;36611;51.638;5.784;2023-01-31T07:55:06;102105.88;;;8.25;59.44
48848;BME280;36611;51.638;5.784;2023-01-31T07:57:32;102107.63;;;8.26;59.49
48848;BME280;36611;51.638;5.784;2023-01-31T07:59:59;102107.56;;;8.28;59.64
48848;BME280;36611;51.638;5.784;2023-01-31T08:02:36;102101.22;;;8.31;59.52
48848;BME280;36611;51.638;5.784;2023-01-31T08:05:21;102095.81;;;8.32;59.68
48848;BME280;36611;51.638;5.784;2023-01-31T08:07:48;102087.69;;;8.35;59.76
48848;BME280;36611;51.638;5.784;2023-01-31T08:10:35;102099.13;;;8.39;59.55
48848;BME280;36611;51.638;5.784;2023-01-31T08:13:02;102082.13;;;8.40;59.67
48848;BME280;36611;51.638;5.784;2023-01-31T08:15:28;102089.09;;;8.44;59.79
48848;BME280;36611;51.638;5.784;2023-01-31T08:17:55;102091.63;;;8.47;59.58
48848;BME280;36611;51.638;5.784;2023-01-31T08:20:22;102096.00;;;8.49;59.63
48848;BME280;36611;51.638;5.784;2023-01-31T08:22:49;102091.44;;;8.51;59.72
48848;BME280;36611;51.638;5.784;2023-01-31T08:25:15;102088.63;;;8.54;59.73
48848;BME280;36611;51.638;5.784;2023-01-31T08:27:44;102081.34;;;8.58;59.72
48848;BME280;36611;51.638;5.784;2023-01-31T08:30:12;102073.19;;;8.61;59.73
48848;BME280;36611;51.638;5.784;2023-01-31T08:32:39;102066.88;;;8.62;59.78
48848;BME280;36611;51.638;5.784;2023-01-31T08:35:05;102070.28;;;8.66;59.78
48848;BME280;36611;51.638;5.784;2023-01-31T08:37:33;102061.19;;;8.70;59.63
48848;BME280;36611;51.638;5.784;2023-01-31T08:39:59;102067.28;;;8.73;59.68
48848;BME280;36611;51.638;5.784;2023-01-31T08:42:26;102068.88;;;8.77;59.80
48848;BME280;36611;51.638;5.784;2023-01-31T08:44:53;102071.44;;;8.80;59.65
48848;BME280;36611;51.638;5.784;2023-01-31T08:47:21;102066.88;;;8.82;59.53
48848;BME280;36611;51.638;5.784;2023-01-31T08:49:48;102065.81;;;8.86;59.77
48848;BME280;36611;51.638;5.784;2023-01-31T08:52:14;102057.63;;;8.89;59.84
48848;BME280;36611;51.638;5.784;2023-01-31T08:54:41;102054.84;;;8.93;59.70
48848;BME280;36611;51.638;5.784;2023-01-31T08:57:07;102044.84;;;8.96;59.55
48848;BME280;36611;51.638;5.784;2023-01-31T08:59:34;102046.47;;;9.00;59.64
48848;BME280;36611;51.638;5.784;2023-01-31T09:02:01;102050.81;;;9.03;59.57
48848;BME280;36611;51.638;5.784;2023-01-31T09:04:28;102039.88;;;9.07;59.42
48848;BME280;36611;51.638;5.784;2023-01-31T09:06:55;102020.91;;;9.12;59.80
48848;BME280;36611;51.638;5.784;2023-01-31T09:09:22;102027.00;;;9.15;59.75
48848;BME280;36611;51.638;5.784;2023-01-31T09:11:51;102036.63;;;9.19;59.54
48848;BME280;36611;51.638;5.784;2023-01-31T09:14:18;102032.78;;;9.25;59.47
48848;BME280;36611;51.638;5.784;2023-01-31T09:16:44;102029.91;;;9.30;59.47
48848;BME280;36611;51.638;5.784;2023-01-31T09:19:12;102028.75;;;9.35;59.51
48848;BME280;36611;51.638;5.784;2023-01-31T09:21:38;102022.22;;;9.41;59.46
48848;BME280;36611;51.638;5.784;2023-01-31T09:24:05;102024.69;;;9.45;59.34
48848;BME280;36611;51.638;5.784;2023-01-31T09:26:32;102017.28;;;9.50;59.66
48848;BME280;36611;51.638;5.784;2023-01-31T09:28:58;102001.78;;;9.57;59.33
48848;BME280;36611;51.638;5.784;2023-01-31T09:31:27;102011.31;;;9.63;59.30
48848;BME280;36611;51.638;5.784;2023-01-31T09:33:54;102014.75;;;9.66;59.49
48848;BME280;36611;51.638;5.784;2023-01-31T09:36:21;102010.84;;;9.73;59.57
48848;BME280;36611;51.638;5.784;2023-01-31T09:38:53;102016.84;;;9.78;59.71
48848;BME280;36611;51.638;5.784;2023-01-31T09:41:29;102020.97;;;9.85;59.46
48848;BME280;36611;51.638;5.784;2023-01-31T09:44:03;102015.38;;;9.90;59.41
48848;BME280;36611;51.638;5.784;2023-01-31T09:46:36;102008.75;;;9.97;59.39
48848;BME280;36611;51.638;5.784;2023-01-31T09:49:12;102012.16;;;10.01;59.47
48848;BME280;36611;51.638;5.784;2023-01-31T09:51:42;102010.19;;;10.04;59.30
48848;BME280;36611;51.638;5.784;2023-01-31T09:54:32;102009.25;;;10.05;59.33
48848;BME280;36611;51.638;5.784;2023-01-31T09:57:08;102007.19;;;10.10;59.34
48848;BME280;36611;51.638;5.784;2023-01-31T10:02:10;102000.47;;;10.19;59.19
48848;BME280;36611;51.638;5.784;2023-01-31T10:07:51;102004.31;;;10.32;59.27
48848;BME280;36611;51.638;5.784;2023-01-31T10:10:29;102002.03;;;10.42;59.09
48848;BME280;36611;51.638;5.784;2023-01-31T10:13:03;101998.16;;;10.47;59.09
48848;BME280;36611;51.638;5.784;2023-01-31T10:15:39;102002.34;;;10.53;58.99
48848;BME280;36611;51.638;5.784;2023-01-31T10:18:22;102004.72;;;10.59;59.37
48848;BME280;36611;51.638;5.784;2023-01-31T10:20:53;102007.94;;;10.66;59.28
48848;BME280;36611;51.638;5.784;2023-01-31T10:26:18;102003.91;;;10.74;58.73
48848;BME280;36611;51.638;5.784;2023-01-31T10:29:01;101994.88;;;10.75;58.93
48848;BME280;36611;51.638;5.784;2023-01-31T10:31:43;102003.03;;;10.74;58.85
48848;BME280;36611;51.638;5.784;2023-01-31T10:34:32;102001.38;;;10.71;58.81
48848;BME280;36611;51.638;5.784;2023-01-31T10:37:01;102000.34;;;10.74;59.05
48848;BME280;36611;51.638;5.784;2023-01-31T10:39:41;102001.28;;;10.73;58.84
48848;BME280;36611;51.638;5.784;2023-01-31T10:44:54;102003.03;;;10.74;58.77
48848;BME280;36611;51.638;5.784;2023-01-31T10:47:35;101998.69;;;10.71;58.34
48848;BME280;36611;51.638;5.784;2023-01-31T10:50:13;101996.72;;;10.75;58.85
48848;BME280;36611;51.638;5.784;2023-01-31T10:55:27;101989.44;;;10.77;58.81
48848;BME280;36611;51.638;5.784;2023-01-31T10:57:58;101986.50;;;10.81;58.64
48848;BME280;36611;51.638;5.784;2023-01-31T11:00:28;101981.91;;;10.83;58.67
48848;BME280;36611;51.638;5.784;2023-01-31T11:02:56;101985.47;;;10.84;58.82
48848;BME280;36611;51.638;5.784;2023-01-31T11:05:26;101971.84;;;10.87;58.84
48848;BME280;36611;51.638;5.784;2023-01-31T11:07:56;101983.31;;;10.91;58.73
48848;BME280;36611;51.638;5.784;2023-01-31T11:10:29;101980.47;;;10.94;58.90
48848;BME280;36611;51.638;5.784;2023-01-31T11:13:03;101970.41;;;10.97;58.82
48848;BME280;36611;51.638;5.784;2023-01-31T11:15:38;101962.16;;;11.00;58.94
48848;BME280;36611;51.638;5.784;2023-01-31T11:18:05;101957.31;;;11.07;59.10
48848;BME280;36611;51.638;5.784;2023-01-31T11:20:36;101957.25;;;11.08;59.12
48848;BME280;36611;51.638;5.784;2023-01-31T11:23:12;101964.97;;;11.14;58.93
48848;BME280;36611;51.638;5.784;2023-01-31T11:25:46;101944.28;;;11.17;59.08
48848;BME280;36611;51.638;5.784;2023-01-31T11:28:39;101942.38;;;11.19;58.86
48848;BME280;36611;51.638;5.784;2023-01-31T11:31:16;101947.47;;;11.23;58.93
48848;BME280;36611;51.638;5.784;2023-01-31T11:33:55;101943.84;;;11.24;58.71
48848;BME280;36611;51.638;5.784;2023-01-31T11:36:22;101949.22;;;11.24;59.00
48848;BME280;36611;51.638;5.784;2023-01-31T11:38:50;101944.72;;;11.25;58.91
48848;BME280;36611;51.638;5.784;2023-01-31T11:44:13;101941.94;;;11.26;58.79
48848;BME280;36611;51.638;5.784;2023-01-31T11:46:48;101949.03;;;11.27;58.61
48848;BME280;36611;51.638;5.784;2023-01-31T11:51:54;101942.44;;;11.33;58.77
48848;BME280;36611;51.638;5.784;2023-01-31T11:54:27;101937.94;;;11.33;58.89
48848;BME280;36611;51.638;5.784;2023-01-31T11:56:56;101935.16;;;11.35;58.63
48848;BME280;36611;51.638;5.784;2023-01-31T11:59:27;101926.06;;;11.37;58.77
48848;BME280;36611;51.638;5.784;2023-01-31T12:01:57;101921.44;;;11.39;58.90
48848;BME280;36611;51.638;5.784;2023-01-31T12:04:32;101933.16;;;11.38;58.90
48848;BME280;36611;51.638;5.784;2023-01-31T12:07:07;101920.66;;;11.37;58.59
48848;BME280;36611;51.638;5.784;2023-01-31T12:09:45;101927.69;;;11.40;58.63
48848;BME280;36611;51.638;5.784;2023-01-31T12:14:54;101920.75;;;11.36;58.71
48848;BME280;36611;51.638;5.784;2023-01-31T12:17:21;101921.63;;;11.36;58.81
48848;BME280;36611;51.638;5.784;2023-01-31T12:25:57;101926.13;;;11.36;58.91
48848;BME280;36611;51.638;5.784;2023-01-31T12:31:31;101912.97;;;11.31;58.64
48848;BME280;36611;51.638;5.784;2023-01-31T12:34:22;101912.25;;;11.28;58.82
48848;BME280;36611;51.638;5.784;2023-01-31T12:40:13;101909.84;;;11.23;58.93
48848;BME280;36611;51.638;5.784;2023-01-31T12:42:58;101918.84;;;11.22;59.02
48848;BME280;36611;51.638;5.784;2023-01-31T12:45:51;101923.44;;;11.20;59.14
48848;BME280;36611;51.638;5.784;2023-01-31T12:48:34;101922.59;;;11.20;59.19
48848;BME280;36611;51.638;5.784;2023-01-31T12:56:41;101910.28;;;11.16;59.59
48848;BME280;36611;51.638;5.784;2023-01-31T12:59:28;101911.19;;;11.14;59.52
48848;BME280;36611;51.638;5.784;2023-01-31T13:02:17;101913.88;;;11.14;59.96
48848;BME280;36611;51.638;5.784;2023-01-31T13:04:55;101907.50;;;11.17;59.88
48848;BME280;36611;51.638;5.784;2023-01-31T13:07:44;101901.34;;;11.15;60.12
48848;BME280;36611;51.638;5.784;2023-01-31T13:10:32;101890.59;;;11.15;60.18
48848;BME280;36611;51.638;5.784;2023-01-31T13:13:01;101903.06;;;11.16;59.89
48848;BME280;36611;51.638;5.784;2023-01-31T13:15:45;101904.09;;;11.13;60.00
48848;BME280;36611;51.638;5.784;2023-01-31T13:18:17;101902.25;;;11.14;60.37
48848;BME280;36611;51.638;5.784;2023-01-31T13:20:49;101908.59;;;11.13;60.30
48848;BME280;36611;51.638;5.784;2023-01-31T13:23:24;101902.44;;;11.11;60.32
48848;BME280;36611;51.638;5.784;2023-01-31T13:26:19;101901.66;;;11.09;60.50
48848;BME280;36611;51.638;5.784;2023-01-31T13:29:09;101905.22;;;11.09;60.49
48848;BME280;36611;51.638;5.784;2023-01-31T13:31:55;101906.16;;;11.08;60.63
48848;BME280;36611;51.638;5.784;2023-01-31T13:34:58;101897.22;;;11.08;60.85
48848;BME280;36611;51.638;5.784;2023-01-31T13:37:28;101891.75;;;11.09;61.02
48848;BME280;36611;51.638;5.784;2023-01-31T13:40:14;101898.00;;;11.10;60.84
48848;BME280;36611;51.638;5.784;2023-01-31T13:42:42;101893.41;;;11.12;61.20
48848;BME280;36611;51.638;5.784;2023-01-31T13:48:00;101884.25;;;11.16;61.26
48848;BME280;36611;51.638;5.784;2023-01-31T13:50:34;101888.59;;;11.19;61.48
48848;BME280;36611;51.638;5.784;2023-01-31T13:53:06;101884.94;;;11.20;61.25
48848;BME280;36611;51.638;5.784;2023-01-31T13:55:43;101879.47;;;11.21;61.56
48848;BME280;36611;51.638;5.784;2023-01-31T13:58:18;101882.94;;;11.23;61.61
48848;BME280;36611;51.638;5.784;2023-01-31T14:00:54;101887.47;;;11.23;61.60
48848;BME280;36611;51.638;5.784;2023-01-31T14:03:25;101888.16;;;11.26;61.46
48848;BME280;36611;51.638;5.784;2023-01-31T14:06:00;101882.69;;;11.28;61.84
48848;BME280;36611;51.638;5.784;2023-01-31T14:11:29;101883.28;;;11.33;61.73
48848;BME280;36611;51.638;5.784;2023-01-31T14:14:10;101882.06;;;11.38;61.84
48848;BME280;36611;51.638;5.784;2023-01-31T14:16:44;101887.44;;;11.38;61.50
48848;BME280;36611;51.638;5.784;2023-01-31T14:22:12;101889.25;;;11.38;62.04
48848;BME280;36611;51.638;5.784;2023-01-31T14:27:27;101911.38;;;11.43;62.12
48848;BME280;36611;51.638;5.784;2023-01-31T14:32:44;101915.53;;;11.49;61.98
48848;BME280;36611;51.638;5.784;2023-01-31T14:43:10;101926.13;;;11.52;62.51
48848;BME280;36611;51.638;5.784;2023-01-31T14:54:25;101934.63;;;11.60;62.23
48848;BME280;36611;51.638;5.784;2023-01-31T14:57:18;101938.09;;;11.62;62.12
48848;BME280;36611;51.638;5.784;2023-01-31T14:59:52;101931.84;;;11.61;62.51
48848;BME280;36611;51.638;5.784;2023-01-31T15:07:27;101941.47;;;11.65;62.13